createdAt,value
2018-04-24T00:00:23.319Z,10.07
2018-04-24T00:00:57.312Z,6.70
2018-04-24T00:01:31.295Z,7.20
2018-04-24T00:02:05.282Z,6.45
2018-04-24T00:02:39.313Z,7.10
2018-04-24T00:03:13.197Z,7.12
2018-04-24T00:03:47.056Z,7.10
2018-04-24T00:04:20.911Z,7.40
2018-04-24T00:04:54.825Z,8.48
2018-04-24T00:05:28.920Z,10.02
2018-04-24T00:06:02.785Z,6.53
2018-04-24T00:06:36.638Z,9.05
2018-04-24T00:07:10.509Z,6.80
2018-04-24T00:07:44.444Z,6.45
2018-04-24T00:08:18.335Z,6.50
2018-04-24T00:08:52.196Z,6.47
2018-04-24T00:09:26.055Z,9.18
2018-04-24T00:09:59.924Z,6.53
2018-04-24T00:10:33.779Z,9.15
2018-04-24T00:11:07.656Z,6.93
2018-04-24T00:11:41.504Z,6.80
2018-04-24T00:12:15.379Z,6.50
2018-04-24T00:12:49.239Z,7.07
2018-04-24T00:13:23.196Z,9.15
2018-04-24T00:13:57.078Z,6.90
2018-04-24T00:14:30.948Z,7.78
2018-04-24T00:15:04.856Z,8.23
2018-04-24T00:15:38.715Z,7.60
2018-04-24T00:16:12.601Z,6.90
2018-04-24T00:16:46.479Z,11.18
2018-04-24T00:17:20.327Z,6.45
2018-04-24T00:17:54.180Z,6.70
2018-04-24T00:18:28.168Z,8.18
2018-04-24T00:19:02.029Z,7.03
2018-04-24T00:19:35.903Z,7.90
2018-04-24T00:20:09.791Z,7.00
2018-04-24T00:20:43.732Z,7.97
2018-04-24T00:21:17.625Z,9.23
2018-04-24T00:21:51.534Z,11.70
2018-04-24T00:22:25.384Z,6.43
2018-04-24T00:22:59.354Z,6.75
2018-04-24T00:23:33.216Z,9.43
2018-04-24T00:24:07.072Z,10.63
2018-04-24T00:24:40.946Z,11.30
2018-04-24T00:25:14.816Z,7.15
2018-04-24T00:25:48.691Z,7.95
2018-04-24T00:26:22.563Z,8.20
2018-04-24T00:26:56.410Z,8.98
2018-04-24T00:27:30.271Z,7.05
2018-04-24T00:28:04.141Z,8.30
2018-04-24T00:28:38.012Z,7.32
2018-04-24T00:29:11.864Z,9.77
2018-04-24T00:29:45.743Z,9.48
2018-04-24T00:30:19.635Z,6.28
2018-04-24T00:30:53.512Z,6.47
2018-04-24T00:31:27.371Z,8.05
2018-04-24T00:32:01.267Z,7.00
2018-04-24T00:32:35.132Z,10.50
2018-04-24T00:33:08.991Z,8.48
2018-04-24T00:33:42.842Z,8.02
2018-04-24T00:34:17.012Z,6.85
2018-04-24T00:34:50.892Z,6.60
2018-04-24T00:35:24.773Z,9.77
2018-04-24T00:35:58.628Z,12.25
2018-04-24T00:36:32.476Z,9.65
2018-04-24T00:37:06.358Z,7.60
2018-04-24T00:37:40.273Z,10.38
2018-04-24T00:38:14.134Z,6.70
2018-04-24T00:38:48.048Z,7.35
2018-04-24T00:39:21.914Z,8.30
2018-04-24T00:39:55.779Z,6.05
2018-04-24T00:40:29.754Z,6.75
2018-04-24T00:41:03.611Z,8.40
2018-04-24T00:41:37.486Z,8.68
2018-04-24T00:42:11.572Z,8.90
2018-04-24T00:42:45.444Z,11.10
2018-04-24T00:43:19.310Z,6.20
2018-04-24T00:43:53.168Z,10.73
2018-04-24T00:44:27.127Z,8.68
2018-04-24T00:45:01.006Z,9.50
2018-04-24T00:45:34.926Z,6.20
2018-04-24T00:46:08.925Z,6.53
2018-04-24T00:46:42.777Z,6.82
2018-04-24T00:47:16.644Z,7.07
2018-04-24T00:47:50.522Z,7.07
2018-04-24T00:48:24.603Z,8.30
2018-04-24T00:48:58.583Z,10.07
2018-04-24T00:49:32.462Z,9.30
2018-04-24T00:50:06.327Z,7.10
2018-04-24T00:50:40.254Z,9.68
2018-04-24T00:51:14.109Z,8.52
2018-04-24T00:51:48.083Z,7.37
2018-04-24T00:52:21.946Z,7.45
2018-04-24T00:52:55.815Z,7.15
2018-04-24T00:53:35.574Z,7.40
2018-04-24T00:54:09.506Z,7.30
2018-04-24T00:54:43.366Z,7.50
2018-04-24T00:55:17.224Z,7.12
2018-04-24T00:55:51.283Z,7.28
2018-04-24T00:56:25.136Z,7.12
2018-04-24T00:56:58.997Z,7.80
2018-04-24T00:57:32.888Z,6.40
2018-04-24T00:58:06.749Z,8.50
2018-04-24T00:58:40.960Z,7.05
2018-04-24T00:59:14.964Z,7.37
2018-04-24T00:59:48.941Z,6.28
2018-04-24T01:00:22.794Z,8.15
2018-04-24T01:00:56.663Z,13.70
2018-04-24T01:01:30.520Z,7.57
2018-04-24T01:02:04.383Z,7.20
2018-04-24T01:02:38.232Z,9.05
2018-04-24T01:03:12.112Z,16.77
2018-04-24T01:03:45.990Z,8.00
2018-04-24T01:04:19.847Z,6.35
2018-04-24T01:04:53.716Z,6.82
2018-04-24T01:05:27.588Z,7.43
2018-04-24T01:06:01.579Z,6.62
2018-04-24T01:06:35.461Z,8.43
2018-04-24T01:07:09.342Z,9.10
2018-04-24T01:07:43.190Z,7.00
2018-04-24T01:08:17.176Z,8.50
2018-04-24T01:08:51.431Z,6.97
2018-04-24T01:09:25.284Z,9.07
2018-04-24T01:09:59.143Z,7.45
2018-04-24T01:10:33.066Z,7.40
2018-04-24T01:11:06.969Z,7.35
2018-04-24T01:11:40.868Z,7.07
2018-04-24T01:12:14.725Z,7.05
2018-04-24T01:12:48.590Z,8.82
2018-04-24T01:13:22.475Z,6.95
2018-04-24T01:13:56.446Z,8.90
2018-04-24T01:14:30.309Z,9.05
2018-04-24T01:15:04.180Z,7.87
2018-04-24T01:15:38.048Z,6.93
2018-04-24T01:16:11.914Z,6.32
2018-04-24T01:16:45.772Z,8.20
2018-04-24T01:17:19.636Z,7.05
2018-04-24T01:17:53.527Z,8.57
2018-04-24T01:18:27.396Z,8.55
2018-04-24T01:19:01.392Z,8.00
2018-04-24T01:19:35.447Z,7.95
2018-04-24T01:20:09.502Z,12.02
2018-04-24T01:20:43.364Z,7.78
2018-04-24T01:21:17.241Z,7.43
2018-04-24T01:21:51.115Z,7.75
2018-04-24T01:22:25.075Z,8.23
2018-04-24T01:22:59.728Z,7.65
2018-04-24T01:23:33.583Z,9.40
2018-04-24T01:24:07.455Z,9.43
2018-04-24T01:24:41.327Z,8.85
2018-04-24T01:25:15.185Z,10.55
2018-04-24T01:25:49.054Z,7.93
2018-04-24T01:26:22.918Z,9.55
2018-04-24T01:26:56.779Z,7.18
2018-04-24T01:27:30.628Z,7.25
2018-04-24T01:28:04.475Z,7.82
2018-04-24T01:28:38.325Z,7.60
2018-04-24T01:29:12.219Z,9.15
2018-04-24T01:29:46.072Z,8.00
2018-04-24T01:30:20.017Z,7.75
2018-04-24T01:30:53.872Z,7.62
2018-04-24T01:31:27.747Z,8.32
2018-04-24T01:32:01.604Z,7.37
2018-04-24T01:32:35.454Z,9.00
2018-04-24T01:33:09.328Z,8.70
2018-04-24T01:33:43.198Z,9.18
2018-04-24T01:34:17.122Z,6.85
2018-04-24T01:34:51.208Z,10.15
2018-04-24T01:35:25.134Z,7.30
2018-04-24T01:35:59.075Z,11.52
2018-04-24T01:36:32.952Z,7.00
2018-04-24T01:37:06.990Z,12.10
2018-04-24T01:37:40.853Z,8.63
2018-04-24T01:38:14.699Z,7.35
2018-04-24T01:38:48.556Z,6.60
2018-04-24T01:39:22.411Z,11.77
2018-04-24T01:39:56.262Z,8.70
2018-04-24T01:40:30.107Z,9.10
2018-04-24T01:41:03.955Z,7.68
2018-04-24T01:41:38.795Z,16.70
2018-04-24T01:42:12.852Z,7.50
2018-04-24T01:42:46.718Z,7.18
2018-04-24T01:43:20.595Z,9.40
2018-04-24T01:43:54.455Z,7.75
2018-04-24T01:44:28.347Z,9.90
2018-04-24T01:45:02.215Z,8.07
2018-04-24T01:45:36.088Z,8.57
2018-04-24T01:46:09.958Z,7.65
2018-04-24T01:46:43.859Z,11.85
2018-04-24T01:47:17.708Z,10.27
2018-04-24T01:47:51.568Z,8.73
2018-04-24T01:48:25.549Z,7.40
2018-04-24T01:48:59.417Z,7.68
2018-04-24T01:49:33.308Z,7.07
2018-04-24T01:50:07.165Z,9.02
2018-04-24T01:50:41.049Z,7.37
2018-04-24T01:51:14.921Z,7.90
2018-04-24T01:51:48.800Z,7.03
2018-04-24T01:52:22.663Z,9.23
2018-04-24T01:52:56.561Z,7.28
2018-04-24T01:53:30.421Z,7.43
2018-04-24T01:54:04.273Z,7.87
2018-04-24T01:54:38.144Z,11.90
2018-04-24T01:55:12.013Z,7.72
2018-04-24T01:55:45.868Z,7.00
2018-04-24T01:56:19.747Z,7.87
2018-04-24T01:56:53.619Z,10.82
2018-04-24T01:57:27.471Z,9.60
2018-04-24T01:58:01.399Z,7.93
2018-04-24T01:58:35.282Z,7.90
2018-04-24T01:59:09.136Z,7.30
2018-04-24T01:59:43.083Z,6.85
2018-04-24T02:00:16.939Z,8.63
2018-04-24T02:00:50.797Z,8.70
2018-04-24T02:01:24.645Z,8.02
2018-04-24T02:01:58.519Z,7.45
2018-04-24T02:02:32.370Z,9.93
2018-04-24T02:03:06.247Z,10.70
2018-04-24T02:03:40.206Z,8.20
2018-04-24T02:04:14.285Z,7.35
2018-04-24T02:04:48.142Z,7.70
2018-04-24T02:05:22.002Z,7.85
2018-04-24T02:05:55.932Z,7.82
2018-04-24T02:06:29.785Z,8.43
2018-04-24T02:07:03.677Z,9.18
2018-04-24T02:07:37.539Z,7.68
2018-04-24T02:08:11.433Z,8.63
2018-04-24T02:08:45.303Z,8.77
2018-04-24T02:09:19.171Z,9.05
2018-04-24T02:09:53.019Z,6.60
2018-04-24T02:10:26.905Z,6.57
2018-04-24T02:11:00.798Z,6.90
2018-04-24T02:11:34.648Z,9.07
2018-04-24T02:12:08.516Z,8.60
2018-04-24T02:12:42.368Z,7.25
2018-04-24T02:13:16.262Z,8.25
2018-04-24T02:13:50.176Z,6.90
2018-04-24T02:14:24.048Z,7.85
2018-04-24T02:14:57.920Z,10.00
2018-04-24T02:15:31.798Z,9.05
2018-04-24T02:16:05.678Z,10.40
2018-04-24T02:16:39.547Z,11.93
2018-04-24T02:17:13.431Z,10.43
2018-04-24T02:17:47.316Z,9.07
2018-04-24T02:18:21.225Z,10.50
2018-04-24T02:18:55.095Z,10.90
2018-04-24T02:19:29.023Z,7.50
2018-04-24T02:20:02.880Z,14.85
2018-04-24T02:20:36.798Z,8.93
2018-04-24T02:21:10.647Z,8.55
2018-04-24T02:21:44.484Z,8.50
2018-04-24T02:22:18.583Z,9.45
2018-04-24T02:22:52.430Z,7.78
2018-04-24T02:23:26.290Z,12.35
2018-04-24T02:24:00.160Z,10.25
2018-04-24T02:24:34.021Z,8.20
2018-04-24T02:25:08.184Z,8.88
2018-04-24T02:25:42.068Z,9.35
2018-04-24T02:26:15.952Z,7.95
2018-04-24T02:26:50.055Z,10.07
2018-04-24T02:27:23.958Z,11.02
2018-04-24T02:27:57.805Z,9.00
2018-04-24T02:28:31.846Z,10.27
2018-04-24T02:29:05.743Z,10.25
2018-04-24T02:29:39.664Z,8.68
2018-04-24T02:30:13.531Z,8.70
2018-04-24T02:30:47.411Z,12.63
2018-04-24T02:31:21.264Z,7.57
2018-04-24T02:31:55.320Z,9.25
2018-04-24T02:32:29.215Z,7.93
2018-04-24T02:33:03.071Z,7.35
2018-04-24T02:33:36.931Z,15.23
2018-04-24T02:34:10.802Z,8.25
2018-04-24T02:34:44.687Z,8.05
2018-04-24T02:35:18.537Z,11.48
2018-04-24T02:35:52.403Z,11.15
2018-04-24T02:36:26.384Z,9.25
2018-04-24T02:37:00.250Z,7.95
2018-04-24T02:37:34.156Z,8.00
2018-04-24T02:38:08.015Z,9.40
2018-04-24T02:38:41.963Z,10.82
2018-04-24T02:39:15.855Z,9.25
2018-04-24T02:39:49.739Z,7.62
2018-04-24T02:40:23.653Z,10.70
2018-04-24T02:40:57.645Z,8.32
2018-04-24T02:41:31.512Z,7.85
2018-04-24T02:42:05.363Z,9.25
2018-04-24T02:42:39.242Z,7.85
2018-04-24T02:43:13.119Z,8.20
2018-04-24T02:43:47.000Z,7.43
2018-04-24T02:44:20.879Z,7.65
2018-04-24T02:44:54.742Z,8.15
2018-04-24T02:45:28.705Z,9.23
2018-04-24T02:46:02.554Z,7.18
2018-04-24T02:46:36.439Z,6.35
2018-04-24T02:47:10.288Z,8.82
2018-04-24T02:47:44.171Z,10.75
2018-04-24T02:48:18.016Z,7.90
2018-04-24T02:48:51.874Z,9.13
2018-04-24T02:49:25.739Z,7.47
2018-04-24T02:49:59.826Z,8.07
2018-04-24T02:50:33.680Z,9.60
2018-04-24T02:51:07.545Z,8.68
2018-04-24T02:51:41.406Z,10.45
2018-04-24T02:52:15.258Z,9.65
2018-04-24T02:52:49.124Z,9.43
2018-04-24T02:53:22.971Z,6.93
2018-04-24T02:53:56.853Z,9.30
2018-04-24T02:54:30.740Z,11.05
2018-04-24T02:55:04.602Z,10.25
2018-04-24T02:55:38.512Z,10.98
2018-04-24T02:56:12.367Z,8.57
2018-04-24T02:56:46.219Z,7.53
2018-04-24T02:57:20.075Z,7.00
2018-04-24T02:57:53.941Z,8.43
2018-04-24T02:58:27.840Z,7.68
2018-04-24T02:59:01.696Z,7.70
2018-04-24T02:59:35.575Z,7.40
2018-04-24T03:00:09.576Z,7.95
2018-04-24T03:00:43.435Z,7.65
2018-04-24T03:01:17.412Z,12.05
2018-04-24T03:01:51.262Z,9.02
2018-04-24T03:02:25.131Z,7.22
2018-04-24T03:02:59.163Z,8.63
2018-04-24T03:03:33.019Z,9.60
2018-04-24T03:04:06.868Z,7.10
2018-04-24T03:04:40.723Z,8.80
2018-04-24T03:05:14.615Z,7.80
2018-04-24T03:05:48.475Z,7.05
2018-04-24T03:06:22.901Z,7.30
2018-04-24T03:06:56.756Z,7.22
2018-04-24T03:07:30.610Z,10.18
2018-04-24T03:08:04.470Z,8.25
2018-04-24T03:08:38.334Z,9.25
2018-04-24T03:09:12.197Z,7.93
2018-04-24T03:09:46.100Z,12.55
2018-04-24T03:10:19.971Z,10.77
2018-04-24T03:10:53.840Z,9.30
2018-04-24T03:11:27.698Z,9.95
2018-04-24T03:12:01.561Z,7.85
2018-04-24T03:12:35.418Z,9.80
2018-04-24T03:13:09.299Z,9.35
2018-04-24T03:13:43.152Z,6.90
2018-04-24T03:14:17.035Z,7.57
2018-04-24T03:14:50.897Z,7.68
2018-04-24T03:15:24.786Z,7.95
2018-04-24T03:15:58.646Z,10.02
2018-04-24T03:16:32.491Z,8.93
2018-04-24T03:17:06.349Z,11.30
2018-04-24T03:17:40.353Z,8.70
2018-04-24T03:18:14.230Z,10.88
2018-04-24T03:18:48.220Z,8.27
2018-04-24T03:19:22.090Z,8.73
2018-04-24T03:19:56.055Z,11.00
2018-04-24T03:20:29.931Z,8.60
2018-04-24T03:21:03.900Z,10.13
2018-04-24T03:21:37.797Z,8.25
2018-04-24T03:22:11.708Z,8.88
2018-04-24T03:22:45.575Z,10.93
2018-04-24T03:23:19.482Z,10.05
2018-04-24T03:23:53.335Z,9.55
2018-04-24T03:24:27.209Z,9.77
2018-04-24T03:25:01.061Z,8.57
2018-04-24T03:25:34.913Z,7.72
2018-04-24T03:26:09.176Z,8.65
2018-04-24T03:26:43.037Z,7.75
2018-04-24T03:27:16.891Z,12.13
2018-04-24T03:27:50.746Z,8.40
2018-04-24T03:28:24.609Z,8.57
2018-04-24T03:28:58.460Z,11.95
2018-04-24T03:29:32.307Z,8.82
2018-04-24T03:30:06.883Z,8.55
2018-04-24T03:30:40.912Z,8.98
2018-04-24T03:31:14.837Z,9.13
2018-04-24T03:31:48.703Z,8.50
2018-04-24T03:32:22.634Z,8.80
2018-04-24T03:32:56.480Z,9.25
2018-04-24T03:33:30.361Z,11.75
2018-04-24T03:34:04.236Z,12.37
2018-04-24T03:34:38.081Z,9.55
2018-04-24T03:35:11.937Z,9.25
2018-04-24T03:35:45.792Z,8.50
2018-04-24T03:36:19.704Z,9.80
2018-04-24T03:36:53.555Z,9.57
2018-04-24T03:37:27.419Z,9.60
2018-04-24T03:38:01.436Z,9.40
2018-04-24T03:38:35.332Z,11.25
2018-04-24T03:39:09.176Z,8.85
2018-04-24T03:39:43.022Z,12.27
2018-04-24T03:40:16.886Z,9.63
2018-04-24T03:40:51.055Z,10.98
2018-04-24T03:41:24.936Z,10.27
2018-04-24T03:41:58.827Z,9.52
2018-04-24T03:42:32.743Z,11.75
2018-04-24T03:43:06.611Z,12.13
2018-04-24T03:43:40.610Z,10.40
2018-04-24T03:44:14.467Z,10.18
2018-04-24T03:44:48.327Z,8.90
2018-04-24T03:45:22.175Z,8.82
2018-04-24T03:45:56.030Z,10.40
2018-04-24T03:46:29.909Z,10.95
2018-04-24T03:47:03.802Z,10.13
2018-04-24T03:47:37.694Z,9.02
2018-04-24T03:48:11.563Z,9.98
2018-04-24T03:48:45.467Z,12.10
2018-04-24T03:49:19.337Z,11.12
2018-04-24T03:49:53.201Z,11.30
2018-04-24T03:50:27.078Z,11.63
2018-04-24T03:51:00.981Z,9.27
2018-04-24T03:51:34.864Z,8.52
2018-04-24T03:52:08.725Z,10.45
2018-04-24T03:52:42.707Z,9.85
2018-04-24T03:53:16.565Z,10.98
2018-04-24T03:53:50.753Z,9.77
2018-04-24T03:54:24.625Z,9.05
2018-04-24T03:54:58.520Z,8.23
2018-04-24T03:55:32.733Z,8.90
2018-04-24T03:56:06.632Z,13.80
2018-04-24T03:56:40.534Z,9.73
2018-04-24T03:57:14.460Z,9.48
2018-04-24T03:57:48.286Z,9.32
2018-04-24T03:58:22.188Z,8.38
2018-04-24T03:58:56.071Z,8.27
2018-04-24T03:59:29.931Z,8.75
2018-04-24T04:00:03.805Z,14.13
2018-04-24T04:00:37.733Z,10.80
2018-04-24T04:01:11.617Z,10.43
2018-04-24T04:01:45.591Z,14.48
2018-04-24T04:02:19.501Z,17.30
2018-04-24T04:02:53.400Z,15.27
2018-04-24T04:03:27.279Z,10.50
2018-04-24T04:04:01.191Z,10.75
2018-04-24T04:04:35.172Z,8.27
2018-04-24T04:05:09.033Z,9.35
2018-04-24T04:05:42.892Z,8.77
2018-04-24T04:06:16.763Z,8.40
2018-04-24T04:06:50.635Z,8.77
2018-04-24T04:07:24.491Z,8.27
2018-04-24T04:07:58.552Z,8.38
2018-04-24T04:08:32.745Z,8.88
2018-04-24T04:09:06.784Z,8.00
2018-04-24T04:09:40.873Z,9.38
2018-04-24T04:10:14.778Z,8.63
2018-04-24T04:10:48.839Z,8.30
2018-04-24T04:11:22.706Z,7.90
2018-04-24T04:11:56.573Z,11.12
2018-04-24T04:12:30.440Z,7.82
2018-04-24T04:13:04.292Z,8.90
2018-04-24T04:13:38.548Z,13.40
2018-04-24T04:14:12.419Z,8.25
2018-04-24T04:14:46.291Z,10.93
2018-04-24T04:15:20.179Z,8.60
2018-04-24T04:15:54.098Z,8.50
2018-04-24T04:16:27.960Z,8.90
2018-04-24T04:17:07.515Z,8.18
2018-04-24T04:17:47.255Z,9.25
2018-04-24T04:18:27.195Z,9.32
2018-04-24T04:19:06.984Z,7.68
2018-04-24T04:19:46.684Z,8.20
2018-04-24T04:20:26.488Z,8.52
2018-04-24T04:21:06.065Z,8.32
2018-04-24T04:21:45.623Z,10.35
2018-04-24T04:22:25.321Z,8.23
2018-04-24T04:23:04.880Z,8.40
2018-04-24T04:23:44.848Z,10.57
2018-04-24T04:24:23.865Z,9.73
2018-04-24T04:24:57.879Z,16.62
2018-04-24T04:25:31.736Z,9.45
2018-04-24T04:26:05.755Z,7.90
2018-04-24T04:26:39.671Z,12.13
2018-04-24T04:27:13.545Z,9.25
2018-04-24T04:27:47.400Z,8.77
2018-04-24T04:28:21.251Z,8.60
2018-04-24T04:28:55.156Z,8.60
2018-04-24T04:29:29.092Z,8.57
2018-04-24T04:30:02.984Z,7.97
2018-04-24T04:30:36.865Z,9.77
2018-04-24T04:31:10.708Z,9.18
2018-04-24T04:31:44.624Z,11.12
2018-04-24T04:32:18.500Z,10.43
2018-04-24T04:32:52.379Z,11.80
2018-04-24T04:33:26.244Z,8.60
2018-04-24T04:34:00.115Z,8.90
2018-04-24T04:34:34.292Z,8.70
2018-04-24T04:35:08.173Z,9.55
2018-04-24T04:35:42.051Z,9.20
2018-04-24T04:36:15.944Z,10.57
2018-04-24T04:36:49.803Z,9.63
2018-04-24T04:37:23.696Z,9.45
2018-04-24T04:37:57.656Z,9.85
2018-04-24T04:38:31.526Z,10.85
2018-04-24T04:39:05.446Z,8.45
2018-04-24T04:39:39.342Z,8.85
2018-04-24T04:40:13.356Z,10.50
2018-04-24T04:40:47.220Z,11.00
2018-04-24T04:41:21.162Z,9.52
2018-04-24T04:41:55.037Z,13.82
2018-04-24T04:42:28.921Z,14.18
2018-04-24T04:43:03.024Z,12.77
2018-04-24T04:43:37.576Z,11.18
2018-04-24T04:44:11.436Z,9.88
2018-04-24T04:44:45.302Z,10.80
2018-04-24T04:45:19.253Z,10.98
2018-04-24T04:45:53.113Z,10.25
2018-04-24T04:46:26.985Z,9.82
2018-04-24T04:47:00.895Z,11.63
2018-04-24T04:47:34.859Z,10.45
2018-04-24T04:48:08.768Z,10.88
2018-04-24T04:48:42.696Z,10.50
2018-04-24T04:49:16.583Z,12.13
2018-04-24T04:49:50.461Z,11.57
2018-04-24T04:50:24.344Z,11.63
2018-04-24T04:50:58.203Z,10.30
2018-04-24T04:51:32.283Z,13.90
2018-04-24T04:52:06.144Z,12.93
2018-04-24T04:52:40.191Z,10.93
2018-04-24T04:53:14.110Z,15.27
2018-04-24T04:53:48.161Z,9.57
2018-04-24T04:54:22.022Z,12.35
2018-04-24T04:54:55.884Z,11.43
2018-04-24T04:55:29.762Z,13.77
2018-04-24T04:56:03.694Z,12.52
2018-04-24T04:56:37.536Z,10.07
2018-04-24T04:57:11.449Z,14.18
2018-04-24T04:57:45.328Z,11.63
2018-04-24T04:58:19.191Z,10.10
2018-04-24T04:58:53.041Z,10.90
2018-04-24T04:59:26.911Z,16.10
2018-04-24T05:00:00.782Z,11.32
2018-04-24T05:00:34.655Z,10.27
2018-04-24T05:01:09.618Z,11.45
2018-04-24T05:01:43.607Z,10.25
2018-04-24T05:02:17.465Z,10.50
2018-04-24T05:02:51.331Z,11.93
2018-04-24T05:03:25.204Z,11.35
2018-04-24T05:03:59.193Z,10.90
2018-04-24T05:04:33.062Z,10.02
2018-04-24T05:05:06.998Z,11.27
2018-04-24T05:05:40.904Z,11.57
2018-04-24T05:06:14.875Z,12.82
2018-04-24T05:06:48.956Z,11.00
2018-04-24T05:07:22.983Z,10.73
2018-04-24T05:07:56.879Z,15.02
2018-04-24T05:08:30.740Z,14.27
2018-04-24T05:09:04.879Z,11.50
2018-04-24T05:09:38.915Z,10.90
2018-04-24T05:10:12.786Z,11.60
2018-04-24T05:10:46.685Z,11.10
2018-04-24T05:11:21.156Z,11.05
2018-04-24T05:11:55.061Z,15.68
2018-04-24T05:12:29.007Z,10.95
2018-04-24T05:13:02.963Z,12.90
2018-04-24T05:13:37.011Z,9.90
2018-04-24T05:14:10.879Z,11.50
2018-04-24T05:14:44.743Z,16.55
2018-04-24T05:15:18.666Z,13.20
2018-04-24T05:15:52.543Z,10.80
2018-04-24T05:16:26.825Z,12.43
2018-04-24T05:17:00.699Z,11.55
2018-04-24T05:17:34.564Z,15.18
2018-04-24T05:18:08.423Z,11.23
2018-04-24T05:18:42.424Z,10.50
2018-04-24T05:19:16.539Z,14.05
2018-04-24T05:19:51.155Z,10.80
2018-04-24T05:20:25.413Z,10.88
2018-04-24T05:21:00.418Z,10.15
2018-04-24T05:21:34.779Z,11.93
2018-04-24T05:22:08.700Z,11.15
2018-04-24T05:22:43.154Z,11.18
2018-04-24T05:23:17.034Z,11.95
2018-04-24T05:23:51.028Z,11.88
2018-04-24T05:24:24.991Z,13.05
2018-04-24T05:24:58.853Z,12.45
2018-04-24T05:25:32.744Z,12.88
2018-04-24T05:26:06.627Z,11.10
2018-04-24T05:26:40.530Z,10.80
2018-04-24T05:27:14.479Z,14.05
2018-04-24T05:27:48.634Z,12.95
2018-04-24T05:28:22.735Z,12.63
2018-04-24T05:28:56.616Z,12.52
2018-04-24T05:29:30.620Z,11.63
2018-04-24T05:30:04.546Z,15.52
2018-04-24T05:30:38.533Z,13.15
2018-04-24T05:31:12.666Z,11.02
2018-04-24T05:31:46.659Z,16.90
2018-04-24T05:32:20.616Z,11.40
2018-04-24T05:32:54.551Z,12.77
2018-04-24T05:33:28.450Z,12.55
2018-04-24T05:34:02.327Z,11.88
2018-04-24T05:34:36.193Z,12.05
2018-04-24T05:35:10.399Z,15.80
2018-04-24T05:35:45.093Z,12.90
2018-04-24T05:36:19.175Z,14.77
2018-04-24T05:36:53.300Z,17.73
2018-04-24T05:37:27.171Z,12.05
2018-04-24T05:38:01.060Z,15.15
2018-04-24T05:38:35.129Z,11.50
2018-04-24T05:39:09.038Z,11.95
2018-04-24T05:39:42.909Z,19.62
2018-04-24T05:40:16.796Z,12.23
2018-04-24T05:40:50.804Z,15.27
2018-04-24T05:41:24.698Z,11.50
2018-04-24T05:41:58.645Z,13.13
2018-04-24T05:42:32.567Z,12.43
2018-04-24T05:43:06.453Z,12.18
2018-04-24T05:43:40.492Z,16.75
2018-04-24T05:44:14.414Z,13.13
2018-04-24T05:44:48.283Z,12.20
2018-04-24T05:45:22.859Z,14.18
2018-04-24T05:45:56.743Z,12.60
2018-04-24T05:46:30.612Z,14.75
2018-04-24T05:47:04.661Z,19.25
2018-04-24T05:47:38.564Z,13.52
2018-04-24T05:48:12.533Z,10.95
2018-04-24T05:48:46.403Z,14.55
2018-04-24T05:49:20.373Z,12.98
2018-04-24T05:49:54.240Z,13.00
2018-04-24T05:50:28.335Z,12.35
2018-04-24T05:51:02.230Z,12.82
2018-04-24T05:51:36.228Z,13.50
2018-04-24T05:52:10.096Z,15.13
2018-04-24T05:52:43.981Z,12.57
2018-04-24T05:53:18.044Z,10.82
2018-04-24T05:53:51.918Z,15.05
2018-04-24T05:54:25.803Z,13.10
2018-04-24T05:54:59.719Z,13.48
2018-04-24T05:55:33.614Z,12.95
2018-04-24T05:56:07.503Z,15.55
2018-04-24T05:56:41.552Z,15.25
2018-04-24T05:57:15.693Z,12.88
2018-04-24T05:57:49.590Z,12.30
2018-04-24T05:58:23.490Z,12.55
2018-04-24T05:58:57.398Z,16.00
2018-04-24T05:59:31.269Z,16.00
2018-04-24T06:00:05.680Z,11.25
2018-04-24T06:00:39.591Z,13.48
2018-04-24T06:01:13.705Z,12.82
2018-04-24T06:01:47.714Z,14.80
2018-04-24T06:02:21.633Z,12.70
2018-04-24T06:02:55.518Z,12.65
2018-04-24T06:03:30.179Z,13.13
2018-04-24T06:04:04.113Z,21.65
2018-04-24T06:04:37.979Z,21.52
2018-04-24T06:05:11.856Z,11.90
2018-04-24T06:05:45.719Z,15.35
2018-04-24T06:06:19.792Z,12.88
2018-04-24T06:06:53.675Z,13.30
2018-04-24T06:07:27.652Z,12.45
2018-04-24T06:08:01.517Z,12.18
2018-04-24T06:08:35.486Z,12.82
2018-04-24T06:09:09.347Z,12.32
2018-04-24T06:09:43.441Z,12.05
2018-04-24T06:10:17.341Z,13.02
2018-04-24T06:10:51.549Z,15.10
2018-04-24T06:11:25.573Z,10.90
2018-04-24T06:11:59.606Z,12.32
2018-04-24T06:12:33.545Z,12.82
2018-04-24T06:13:07.436Z,13.07
2018-04-24T06:13:41.701Z,12.82
2018-04-24T06:14:18.574Z,16.33
2018-04-24T06:14:52.596Z,13.05
2018-04-24T06:15:26.956Z,13.68
2018-04-24T06:16:00.815Z,15.70
2018-04-24T06:16:34.696Z,15.48
2018-04-24T06:17:08.759Z,13.95
2018-04-24T06:17:42.625Z,12.13
2018-04-24T06:18:16.513Z,12.82
2018-04-24T06:18:50.502Z,12.32
2018-04-24T06:19:24.901Z,12.25
2018-04-24T06:19:58.760Z,16.73
2018-04-24T06:20:32.877Z,14.40
2018-04-24T06:21:06.766Z,13.80
2018-04-24T06:21:40.689Z,13.30
2018-04-24T06:22:14.868Z,14.77
2018-04-24T06:22:48.732Z,12.48
2018-04-24T06:23:22.628Z,12.50
2018-04-24T06:23:56.502Z,13.02
2018-04-24T06:24:30.372Z,12.25
2018-04-24T06:25:05.646Z,14.15
2018-04-24T06:25:39.516Z,12.40
2018-04-24T06:26:13.386Z,15.57
2018-04-24T06:26:47.247Z,13.10
2018-04-24T06:27:21.183Z,12.30
2018-04-24T06:27:55.053Z,14.50
2018-04-24T06:28:28.941Z,12.90
2018-04-24T06:29:02.817Z,12.85
2018-04-24T06:29:36.910Z,12.10
2018-04-24T06:30:10.880Z,11.93
2018-04-24T06:30:44.747Z,13.25
2018-04-24T06:31:18.668Z,13.07
2018-04-24T06:31:52.622Z,13.13
2018-04-24T06:32:26.543Z,11.70
2018-04-24T06:33:00.468Z,12.40
2018-04-24T06:33:34.419Z,17.95
2018-04-24T06:34:08.303Z,13.77
2018-04-24T06:34:42.180Z,12.18
2018-04-24T06:35:16.726Z,12.18
2018-04-24T06:35:50.718Z,12.10
2018-04-24T06:36:24.628Z,11.15
2018-04-24T06:36:58.503Z,10.35
2018-04-24T06:37:32.378Z,11.75
2018-04-24T06:38:06.297Z,12.48
2018-04-24T06:38:40.228Z,12.48
2018-04-24T06:39:14.173Z,12.35
2018-04-24T06:39:48.064Z,15.68
2018-04-24T06:40:21.967Z,16.48
2018-04-24T06:40:55.858Z,12.07
2018-04-24T06:41:29.783Z,10.80
2018-04-24T06:42:03.660Z,11.45
2018-04-24T06:42:37.865Z,12.37
2018-04-24T06:43:11.723Z,10.68
2018-04-24T06:43:45.594Z,14.90
2018-04-24T06:44:19.460Z,11.27
2018-04-24T06:44:53.336Z,16.10
2018-04-24T06:45:27.208Z,11.63
2018-04-24T06:46:01.065Z,10.77
2018-04-24T06:46:35.042Z,12.43
2018-04-24T06:47:08.992Z,11.10
2018-04-24T06:47:43.491Z,12.27
2018-04-24T06:48:18.109Z,12.15
2018-04-24T06:48:51.977Z,11.43
2018-04-24T06:49:25.977Z,12.23
2018-04-24T06:49:59.853Z,11.95
2018-04-24T06:50:34.863Z,15.73
2018-04-24T06:51:08.862Z,12.48
2018-04-24T06:51:42.906Z,10.95
2018-04-24T06:52:18.266Z,11.32
2018-04-24T06:52:52.289Z,12.02
2018-04-24T06:53:26.195Z,11.40
2018-04-24T06:54:04.177Z,12.57
2018-04-24T06:54:43.418Z,11.75
2018-04-24T06:55:19.558Z,13.23
2018-04-24T06:55:53.897Z,12.37
2018-04-24T06:56:27.839Z,13.38
2018-04-24T06:57:01.792Z,11.52
2018-04-24T06:57:36.022Z,12.13
2018-04-24T07:11:05.198Z,11.98
2018-04-24T07:11:39.064Z,14.63
2018-04-24T07:12:12.937Z,13.27
2018-04-24T07:12:46.909Z,13.68
2018-04-24T07:13:20.935Z,17.42
2018-04-24T07:13:54.788Z,11.27
2018-04-24T07:14:29.533Z,16.55
2018-04-24T07:15:03.412Z,14.75
2018-04-24T07:15:37.270Z,17.67
2018-04-24T07:16:11.148Z,19.70
2018-04-24T07:16:45.040Z,14.43
2018-04-24T07:17:18.995Z,20.23
2018-04-24T07:17:52.888Z,17.08
2018-04-24T07:18:26.909Z,16.85
2018-04-24T07:19:00.796Z,13.65
2018-04-24T07:19:34.661Z,15.68
2018-04-24T07:20:08.531Z,15.30
2018-04-24T07:20:42.430Z,18.48
2018-04-24T07:21:16.352Z,17.87
2018-04-24T07:21:50.234Z,18.20
2018-04-24T07:22:24.091Z,16.35
2018-04-24T07:22:57.995Z,14.98
2018-04-24T07:23:31.860Z,15.52
2018-04-24T07:24:05.839Z,14.98
2018-04-24T07:24:39.929Z,15.85
2018-04-24T07:25:13.799Z,18.62
2018-04-24T07:25:47.666Z,15.77
2018-04-24T07:26:21.559Z,19.60
2018-04-24T07:26:55.428Z,17.15
2018-04-24T07:27:29.313Z,23.27
2018-04-24T07:28:03.184Z,17.75
2018-04-24T07:28:37.223Z,20.65
2018-04-24T07:29:11.108Z,16.37
2018-04-24T07:29:44.988Z,22.13
2018-04-24T07:30:18.910Z,17.40
2018-04-24T07:30:52.773Z,19.98
2018-04-24T07:31:26.684Z,17.55
2018-04-24T07:32:00.571Z,18.42
2018-04-24T07:32:34.431Z,18.20
2018-04-24T07:33:08.577Z,15.95
2018-04-24T07:33:42.432Z,24.23
2018-04-24T07:34:16.474Z,20.67
2018-04-24T07:34:50.496Z,23.38
2018-04-24T07:35:28.529Z,20.30
2018-04-24T07:36:02.463Z,19.62
2018-04-24T07:36:36.484Z,17.00
2018-04-24T07:37:12.371Z,19.60
2018-04-24T07:37:48.432Z,20.30
2018-04-24T07:38:24.343Z,22.90
2018-04-24T07:39:00.917Z,18.77